EHMG

L9-ff-1 Sea

L9-ff-1 Sea, The Netherlands
METAR EHMG 201425Z AUTO 07010KT 9999 NCD 19/15 Q1015 W///H///
Observed Flight Rules
Jul-20 @ 14:25 UTC (21 minutes ago) Visual Flight Rules
Wind Visibility Clouds
70° at 10 knots 10,000+ meters
  • Clear skies
Temperatures Readings
Current 19°C / 66°F
Dewpoint 15°C / 59°F
Humidity 78%
Altimeter 29.97" Hg
Pressure 1015 hPa
Elevation 50
METAR EHMG 201425Z AUTO 07010KT 9999 NCD 19/15 Q1015 W///H///
Observed Flight Rules
Jul-20 @ 14:25 UTC
(21 minutes ago)
VFR
Wind Visibility
70° at 10 knots 10,000+ meters
Clouds
  • Clear skies
Temperature Dewpoint
19°C / 66°F 15°C / 59°F
Humidity Altimeter Pressure
78% 29.97" Hg 1015 hPa